createdAt,value
2022-09-28T00:00:02.991Z,0
2022-09-28T00:01:02.989Z,0
2022-09-28T00:02:03.148Z,0
2022-09-28T00:03:03.031Z,0
2022-09-28T00:04:02.995Z,0
2022-09-28T00:05:02.999Z,0
2022-09-28T00:06:03.021Z,0
2022-09-28T00:07:02.988Z,0
2022-09-28T00:08:03.006Z,0
2022-09-28T00:09:02.988Z,0
2022-09-28T00:10:02.996Z,0
2022-09-28T00:11:02.990Z,0
2022-09-28T00:12:02.992Z,0
2022-09-28T00:13:02.989Z,0
2022-09-28T00:14:03.004Z,0
2022-09-28T00:15:03.002Z,0
2022-09-28T00:16:03.034Z,0
2022-09-28T00:17:02.990Z,0
2022-09-28T00:18:03.001Z,0
2022-09-28T00:19:02.997Z,0
2022-09-28T00:20:02.994Z,0
2022-09-28T00:21:03.004Z,0
2022-09-28T00:22:03.008Z,0
2022-09-28T00:23:02.989Z,0
2022-09-28T00:24:02.996Z,0
2022-09-28T00:25:02.993Z,0
2022-09-28T00:26:03.000Z,0
2022-09-28T00:27:02.997Z,0
2022-09-28T00:28:02.997Z,0
2022-09-28T00:29:03.006Z,0
2022-09-28T00:30:03.002Z,0
2022-09-28T00:31:03.079Z,0
2022-09-28T00:32:03.056Z,0
2022-09-28T00:33:02.997Z,0
2022-09-28T00:34:02.993Z,0
2022-09-28T00:35:03.004Z,0
2022-09-28T00:36:02.997Z,0
2022-09-28T00:37:02.996Z,0
2022-09-28T00:38:03.026Z,0
2022-09-28T00:39:02.996Z,0
2022-09-28T00:40:02.999Z,0
2022-09-28T00:41:03.005Z,0
2022-09-28T00:42:03.002Z,0
2022-09-28T00:43:03.003Z,5.1000000000000005
2022-09-28T00:44:02.998Z,4.6000000000000005
2022-09-28T00:45:02.994Z,7.2
2022-09-28T00:46:03.028Z,7.800000000000001
2022-09-28T00:47:02.997Z,3.9000000000000004
2022-09-28T00:48:02.996Z,2.9000000000000004
2022-09-28T00:49:03.002Z,1.9000000000000001
2022-09-28T00:50:03.002Z,0
2022-09-28T00:51:03.000Z,0
2022-09-28T00:52:03.009Z,0
2022-09-28T00:53:02.995Z,0
2022-09-28T00:54:03.030Z,0
2022-09-28T00:55:03.002Z,0
2022-09-28T00:56:03.001Z,0
2022-09-28T00:57:02.997Z,0
2022-09-28T00:58:02.995Z,0
2022-09-28T00:59:03.002Z,0
2022-09-28T01:00:03.014Z,0
2022-09-28T01:01:03.018Z,0
2022-09-28T01:02:03.048Z,0
2022-09-28T01:03:03.002Z,0
2022-09-28T01:04:03.014Z,0
2022-09-28T01:05:02.997Z,0
2022-09-28T01:06:03.000Z,0
2022-09-28T01:07:03.003Z,0
2022-09-28T01:08:02.997Z,0
2022-09-28T01:09:03.009Z,0
2022-09-28T01:10:03.032Z,0
2022-09-28T01:11:03.008Z,0
2022-09-28T01:12:03.012Z,0
2022-09-28T01:13:03.019Z,0
2022-09-28T01:14:03.013Z,0
2022-09-28T01:15:03.005Z,0
2022-09-28T01:16:03.054Z,0
2022-09-28T01:17:03.007Z,0
2022-09-28T01:18:03.002Z,0
2022-09-28T01:19:03.006Z,0
2022-09-28T01:20:02.995Z,0
2022-09-28T01:21:03.008Z,0
2022-09-28T01:22:03.008Z,0
2022-09-28T01:23:03.014Z,0
2022-09-28T01:24:03.002Z,0
2022-09-28T01:25:03.007Z,0
2022-09-28T01:26:03.027Z,0
2022-09-28T01:27:02.995Z,0
2022-09-28T01:28:03.001Z,0
2022-09-28T01:29:03.004Z,0
2022-09-28T01:30:03.010Z,0
2022-09-28T01:31:03.007Z,0
2022-09-28T01:32:03.057Z,0
2022-09-28T01:33:03.008Z,0
2022-09-28T01:34:02.994Z,0
2022-09-28T01:35:03.004Z,0
2022-09-28T01:36:03.018Z,0
2022-09-28T01:37:03.008Z,0
2022-09-28T01:38:03.007Z,0
2022-09-28T01:39:03.006Z,0
2022-09-28T01:40:03.024Z,0
2022-09-28T01:41:03.013Z,0
2022-09-28T01:42:03.033Z,0
2022-09-28T01:43:03.008Z,0
2022-09-28T01:44:03.046Z,0
2022-09-28T01:45:03.010Z,0
2022-09-28T01:46:03.059Z,0
2022-09-28T01:47:03.004Z,0
2022-09-28T01:48:03.017Z,0
2022-09-28T01:49:03.017Z,0
2022-09-28T01:50:03.023Z,0
2022-09-28T01:51:03.019Z,0
2022-09-28T01:52:03.008Z,0
2022-09-28T01:53:03.017Z,0
2022-09-28T01:54:03.014Z,0
2022-09-28T01:55:03.029Z,0
2022-09-28T01:56:03.015Z,0
2022-09-28T01:57:03.006Z,0
2022-09-28T01:58:03.045Z,0
2022-09-28T01:59:03.009Z,0
2022-09-28T02:00:03.011Z,0
2022-09-28T02:01:03.081Z,0
2022-09-28T02:02:03.063Z,0
2022-09-28T02:03:03.018Z,0
2022-09-28T02:04:03.019Z,0
2022-09-28T02:05:03.037Z,0
2022-09-28T02:06:03.020Z,0
2022-09-28T02:07:03.020Z,0
2022-09-28T02:08:03.013Z,0
2022-09-28T02:09:03.016Z,0
2022-09-28T02:10:03.015Z,0
2022-09-28T02:11:03.012Z,0
2022-09-28T02:12:03.013Z,0
2022-09-28T02:13:03.009Z,0
2022-09-28T02:14:03.043Z,0
2022-09-28T02:15:03.010Z,0
2022-09-28T02:16:03.049Z,0
2022-09-28T02:17:03.031Z,0
2022-09-28T02:18:03.020Z,0
2022-09-28T02:19:03.014Z,0
2022-09-28T02:20:03.018Z,0
2022-09-28T02:21:03.021Z,0
2022-09-28T02:22:03.023Z,0
2022-09-28T02:23:03.021Z,0
2022-09-28T02:24:03.017Z,0
2022-09-28T02:25:03.012Z,0
2022-09-28T02:26:03.012Z,0
2022-09-28T02:27:03.013Z,0
2022-09-28T02:28:03.017Z,0
2022-09-28T02:29:03.026Z,0
2022-09-28T02:30:03.039Z,0
2022-09-28T02:31:03.070Z,0
2022-09-28T02:32:03.017Z,0
2022-09-28T02:33:03.012Z,0
2022-09-28T02:34:03.012Z,0
2022-09-28T02:35:03.021Z,0
2022-09-28T02:36:03.018Z,0
2022-09-28T02:37:03.020Z,0
2022-09-28T02:38:03.025Z,0
2022-09-28T02:39:03.016Z,0
2022-09-28T02:40:03.019Z,0
2022-09-28T02:41:03.016Z,0
2022-09-28T02:42:03.021Z,0
2022-09-28T02:43:03.021Z,0
2022-09-28T02:44:03.021Z,0
2022-09-28T02:45:03.028Z,0
2022-09-28T02:46:03.088Z,0
2022-09-28T02:47:03.014Z,0
2022-09-28T02:48:03.026Z,0
2022-09-28T02:49:20.129Z,0
2022-09-28T02:50:03.023Z,0
2022-09-28T02:51:03.020Z,0
2022-09-28T02:52:03.029Z,0
2022-09-28T02:53:03.020Z,0
2022-09-28T02:54:03.029Z,0
2022-09-28T02:55:03.042Z,0
2022-09-28T02:56:03.017Z,0
2022-09-28T02:57:03.039Z,0
2022-09-28T02:58:03.023Z,0
2022-09-28T02:59:03.018Z,0
2022-09-28T03:00:03.031Z,0
2022-09-28T03:01:03.064Z,0
2022-09-28T03:02:03.101Z,0
2022-09-28T03:03:03.027Z,0
2022-09-28T03:04:03.023Z,0
2022-09-28T03:05:03.016Z,0
2022-09-28T03:06:03.014Z,0
2022-09-28T03:07:03.022Z,0
2022-09-28T03:08:03.019Z,0
2022-09-28T03:09:03.029Z,0
2022-09-28T03:10:03.028Z,0
2022-09-28T03:11:03.024Z,0
2022-09-28T03:12:03.037Z,0
2022-09-28T03:13:03.029Z,0
2022-09-28T03:14:03.016Z,0
2022-09-28T03:15:03.025Z,0
2022-09-28T03:16:03.053Z,0
2022-09-28T03:17:03.022Z,0
2022-09-28T03:18:03.042Z,0
2022-09-28T03:19:03.025Z,0
2022-09-28T03:20:03.017Z,0
2022-09-28T03:21:03.026Z,0
2022-09-28T03:22:03.025Z,0
2022-09-28T03:24:03.020Z,0
2022-09-28T03:25:03.023Z,0
2022-09-28T03:26:03.031Z,0
2022-09-28T03:27:03.013Z,0
2022-09-28T03:28:03.039Z,0
2022-09-28T03:29:03.027Z,0
2022-09-28T03:30:03.024Z,0
2022-09-28T03:31:03.084Z,0
2022-09-28T03:32:03.036Z,0
2022-09-28T03:33:03.025Z,0
2022-09-28T03:34:03.035Z,0
2022-09-28T03:35:03.017Z,0
2022-09-28T03:36:03.028Z,0
2022-09-28T03:37:03.018Z,0
2022-09-28T03:38:03.025Z,0
2022-09-28T03:39:03.028Z,0
2022-09-28T03:40:03.026Z,0
2022-09-28T03:41:03.073Z,0
2022-09-28T03:42:03.031Z,0
2022-09-28T03:43:03.029Z,0
2022-09-28T03:44:03.020Z,0
2022-09-28T03:45:03.033Z,0
2022-09-28T03:46:03.111Z,0
2022-09-28T03:47:03.030Z,0
2022-09-28T03:48:03.038Z,0
2022-09-28T03:49:03.029Z,0
2022-09-28T03:50:03.048Z,0
2022-09-28T03:51:03.030Z,0
2022-09-28T03:52:03.031Z,0
2022-09-28T03:53:03.026Z,7.300000000000001
2022-09-28T03:54:03.023Z,6.4
2022-09-28T03:55:03.027Z,4.9
2022-09-28T03:56:03.033Z,2.4000000000000004
2022-09-28T03:57:03.029Z,0
2022-09-28T03:58:03.028Z,5.7
2022-09-28T03:59:03.029Z,3.6
2022-09-28T04:00:03.033Z,3.9000000000000004
2022-09-28T04:01:03.112Z,3.8000000000000003
2022-09-28T04:02:03.080Z,4.6000000000000005
2022-09-28T04:03:03.046Z,0
2022-09-28T04:04:03.034Z,0
2022-09-28T04:05:03.046Z,0
2022-09-28T04:06:03.054Z,0
2022-09-28T04:07:03.036Z,0
2022-09-28T04:08:03.035Z,0
2022-09-28T04:09:03.064Z,0
2022-09-28T04:10:03.035Z,0
2022-09-28T04:11:03.032Z,0
2022-09-28T04:12:04.429Z,0
2022-09-28T04:13:03.031Z,0
2022-09-28T04:14:03.035Z,3.8000000000000003
2022-09-28T04:15:03.038Z,4.800000000000001
2022-09-28T04:16:03.090Z,3.3000000000000003
2022-09-28T04:17:03.033Z,3.6
2022-09-28T04:18:03.024Z,1
2022-09-28T04:19:03.078Z,0
2022-09-28T04:20:03.047Z,0
2022-09-28T04:21:03.028Z,0
2022-09-28T04:22:03.058Z,0
2022-09-28T04:23:03.037Z,0
2022-09-28T04:24:03.034Z,0
2022-09-28T04:25:03.035Z,0
2022-09-28T04:26:03.037Z,0
2022-09-28T04:27:03.040Z,0
2022-09-28T04:28:03.041Z,0
2022-09-28T04:29:06.495Z,4.4
2022-09-28T04:30:03.039Z,2.4000000000000004
2022-09-28T04:31:03.041Z,0
2022-09-28T04:32:03.123Z,0
2022-09-28T04:33:03.038Z,0
2022-09-28T04:34:03.033Z,0
2022-09-28T04:35:03.033Z,0
2022-09-28T04:36:03.038Z,0
2022-09-28T04:37:03.039Z,4.2
2022-09-28T04:38:03.069Z,5.9
2022-09-28T04:39:03.049Z,2.9000000000000004
2022-09-28T04:40:03.032Z,0
2022-09-28T04:41:03.118Z,0
2022-09-28T04:42:03.035Z,0
2022-09-28T04:43:03.039Z,3.2
2022-09-28T04:44:03.037Z,0
2022-09-28T04:45:03.043Z,2.7
2022-09-28T04:46:03.138Z,2.2
2022-09-28T04:47:05.249Z,3.4000000000000004
2022-09-28T04:48:03.040Z,4.7
2022-09-28T04:49:03.038Z,1
2022-09-28T04:50:03.053Z,0
2022-09-28T04:51:03.041Z,0
2022-09-28T04:52:03.039Z,0
2022-09-28T04:53:03.046Z,0
2022-09-28T04:54:03.066Z,0
2022-09-28T04:55:03.043Z,0
2022-09-28T04:56:03.048Z,0
2022-09-28T04:57:03.040Z,0
2022-09-28T04:58:03.043Z,0
2022-09-28T04:59:03.046Z,0
2022-09-28T05:00:03.042Z,0
2022-09-28T05:01:03.111Z,0
2022-09-28T05:02:03.139Z,0
2022-09-28T05:03:03.055Z,0
2022-09-28T05:04:03.054Z,0
2022-09-28T05:05:03.052Z,0
2022-09-28T05:06:03.046Z,0
2022-09-28T05:07:03.042Z,0
2022-09-28T05:08:03.049Z,0
2022-09-28T05:09:03.052Z,0
2022-09-28T05:10:03.066Z,0
2022-09-28T05:11:03.047Z,0
2022-09-28T05:12:03.052Z,0
2022-09-28T05:13:03.043Z,0
2022-09-28T05:14:03.058Z,0
2022-09-28T05:15:03.047Z,0
2022-09-28T05:16:05.332Z,0
2022-09-28T05:17:03.074Z,0
2022-09-28T05:18:03.050Z,0
2022-09-28T05:19:03.053Z,0
2022-09-28T05:20:03.052Z,0
2022-09-28T05:21:03.054Z,0
2022-09-28T05:22:03.049Z,0
2022-09-28T05:23:03.048Z,0
2022-09-28T05:24:03.040Z,0
2022-09-28T05:25:03.049Z,0
2022-09-28T05:26:03.076Z,0
2022-09-28T05:27:03.047Z,0
2022-09-28T05:28:03.043Z,0
2022-09-28T05:29:03.057Z,0
2022-09-28T05:30:03.050Z,0
2022-09-28T05:31:03.065Z,0
2022-09-28T05:32:03.078Z,0
2022-09-28T05:33:03.056Z,0
2022-09-28T05:34:03.050Z,0
2022-09-28T05:35:03.038Z,0
2022-09-28T05:36:03.046Z,0
2022-09-28T05:37:03.054Z,0
2022-09-28T05:38:03.050Z,0
2022-09-28T05:39:03.056Z,0
2022-09-28T05:40:03.054Z,0
2022-09-28T05:41:06.345Z,0
2022-09-28T05:42:03.078Z,0
2022-09-28T05:43:03.052Z,0
2022-09-28T05:44:03.057Z,0
2022-09-28T05:45:03.062Z,0
2022-09-28T05:46:03.103Z,0
2022-09-28T05:47:03.048Z,0
2022-09-28T05:48:03.052Z,0
2022-09-28T05:49:03.054Z,0
2022-09-28T05:50:03.045Z,0
2022-09-28T05:51:03.057Z,0
2022-09-28T05:52:03.055Z,0
2022-09-28T05:53:03.051Z,0
2022-09-28T05:54:05.849Z,0
2022-09-28T05:55:03.059Z,0
2022-09-28T05:56:03.060Z,0
2022-09-28T05:57:03.053Z,0
2022-09-28T05:58:03.076Z,0
2022-09-28T05:59:03.049Z,0
2022-09-28T06:00:03.057Z,0
2022-09-28T06:01:03.080Z,0
2022-09-28T06:02:03.119Z,0
2022-09-28T06:03:06.653Z,0
2022-09-28T06:04:03.076Z,0
2022-09-28T06:05:03.058Z,0
2022-09-28T06:06:03.059Z,0
2022-09-28T06:07:03.048Z,0
2022-09-28T06:08:03.053Z,0
2022-09-28T06:09:03.055Z,0
2022-09-28T06:10:03.055Z,0
2022-09-28T06:11:03.061Z,6.9
2022-09-28T06:12:03.056Z,3.5
2022-09-28T06:13:03.058Z,4.7
2022-09-28T06:14:03.081Z,3.7
2022-09-28T06:15:03.051Z,6.4
2022-09-28T06:16:03.065Z,3.2
2022-09-28T06:17:03.164Z,2.4000000000000004
2022-09-28T06:18:03.060Z,1.3
2022-09-28T06:19:03.058Z,0
2022-09-28T06:20:03.060Z,0
2022-09-28T06:21:03.051Z,0
2022-09-28T06:22:03.051Z,0
2022-09-28T06:23:03.057Z,6
2022-09-28T06:24:03.062Z,5.5
2022-09-28T06:25:03.055Z,0
2022-09-28T06:26:03.060Z,0
2022-09-28T06:27:03.064Z,0
2022-09-28T06:28:03.063Z,0
2022-09-28T06:29:03.057Z,0
2022-09-28T06:30:03.077Z,0
2022-09-28T06:31:03.172Z,0
2022-09-28T06:32:03.063Z,0
2022-09-28T06:33:03.071Z,0
2022-09-28T06:34:03.087Z,0
2022-09-28T06:35:03.061Z,0
2022-09-28T06:36:03.063Z,0
2022-09-28T06:37:03.063Z,5.7
2022-09-28T06:38:03.052Z,5.4
2022-09-28T06:39:03.062Z,1.3
2022-09-28T06:40:03.057Z,3.6
2022-09-28T06:41:03.098Z,0
2022-09-28T06:42:03.059Z,3.7
2022-09-28T06:43:03.063Z,4.4
2022-09-28T06:44:03.067Z,2.7
2022-09-28T06:45:03.054Z,1.7000000000000002
2022-09-28T06:46:03.209Z,3.4000000000000004
2022-09-28T06:47:03.060Z,0.8
2022-09-28T06:48:03.079Z,0
2022-09-28T06:49:03.068Z,4.800000000000001
2022-09-28T06:50:03.062Z,4
2022-09-28T06:51:03.072Z,3.7
2022-09-28T06:52:03.067Z,2.2
2022-09-28T06:53:03.064Z,0
2022-09-28T06:54:03.070Z,0
2022-09-28T06:55:03.065Z,0
2022-09-28T06:56:03.071Z,0
2022-09-28T06:57:03.066Z,0
2022-09-28T06:58:03.067Z,0
2022-09-28T06:59:03.064Z,0
2022-09-28T07:00:03.069Z,0
2022-09-28T07:01:03.175Z,0
2022-09-28T07:02:03.139Z,0
2022-09-28T07:03:03.072Z,0
2022-09-28T07:04:03.066Z,0
2022-09-28T07:05:03.070Z,0
2022-09-28T07:06:03.072Z,0
2022-09-28T07:07:03.067Z,0
2022-09-28T07:08:03.081Z,0
2022-09-28T07:09:12.692Z,0
2022-09-28T07:10:03.063Z,0
2022-09-28T07:11:03.073Z,0
2022-09-28T07:12:03.077Z,0
2022-09-28T07:13:03.144Z,0
2022-09-28T07:14:03.065Z,0
2022-09-28T07:15:03.085Z,0
2022-09-28T07:16:03.068Z,0
2022-09-28T07:17:12.892Z,0
2022-09-28T07:18:04.040Z,0
2022-09-28T07:19:03.077Z,0
2022-09-28T07:20:14.045Z,0
2022-09-28T07:21:03.071Z,0
2022-09-28T07:22:05.326Z,0
2022-09-28T07:23:13.692Z,0
2022-09-28T07:24:03.074Z,0
2022-09-28T07:25:03.075Z,0
2022-09-28T07:26:03.602Z,0
2022-09-28T07:27:03.066Z,0
2022-09-28T07:28:03.069Z,0
2022-09-28T07:29:03.078Z,0
2022-09-28T07:30:03.069Z,0
2022-09-28T07:31:03.096Z,0
2022-09-28T07:32:03.069Z,0
2022-09-28T07:33:03.071Z,0
2022-09-28T07:34:03.132Z,0
2022-09-28T07:35:03.074Z,0
2022-09-28T07:36:03.069Z,0
2022-09-28T07:37:03.072Z,0
2022-09-28T07:38:03.072Z,0
2022-09-28T07:39:03.083Z,0
2022-09-28T07:40:03.069Z,0
2022-09-28T07:41:03.129Z,0
2022-09-28T07:42:03.227Z,6
2022-09-28T07:43:03.072Z,1.9000000000000001
2022-09-28T07:44:03.067Z,0
2022-09-28T07:45:03.072Z,0
2022-09-28T07:46:03.128Z,2.4000000000000004
2022-09-28T07:47:03.070Z,0
2022-09-28T07:48:03.110Z,0
2022-09-28T07:49:04.786Z,2.9000000000000004
2022-09-28T07:50:03.102Z,0
2022-09-28T07:51:03.068Z,0
2022-09-28T07:52:03.068Z,0
2022-09-28T07:53:03.071Z,0
2022-09-28T07:54:03.080Z,0
2022-09-28T07:55:06.746Z,3.4000000000000004
2022-09-28T07:56:03.080Z,2.3000000000000003
2022-09-28T07:57:03.070Z,1.9000000000000001
2022-09-28T07:58:03.072Z,0
2022-09-28T07:59:03.078Z,0
2022-09-28T08:00:03.075Z,0
2022-09-28T08:01:03.129Z,0
2022-09-28T08:02:03.167Z,0
2022-09-28T08:03:03.080Z,0
2022-09-28T08:04:03.082Z,0
2022-09-28T08:05:03.077Z,0
2022-09-28T08:06:03.112Z,0
2022-09-28T08:07:03.081Z,0
2022-09-28T08:08:03.080Z,0
2022-09-28T08:09:03.091Z,0
2022-09-28T08:10:03.079Z,0
2022-09-28T08:11:03.079Z,0
2022-09-28T08:12:03.089Z,0
2022-09-28T08:13:03.281Z,0
2022-09-28T08:14:03.082Z,0
2022-09-28T08:15:03.084Z,0
2022-09-28T08:16:03.077Z,0
2022-09-28T08:17:03.096Z,0
2022-09-28T08:18:03.158Z,0
2022-09-28T08:19:03.087Z,0
2022-09-28T08:20:03.079Z,0
2022-09-28T08:21:03.073Z,0
2022-09-28T08:22:03.123Z,0
2022-09-28T08:23:03.080Z,0
2022-09-28T08:24:03.078Z,0
2022-09-28T08:25:03.079Z,6.800000000000001
2022-09-28T08:26:03.070Z,6.5
2022-09-28T08:27:03.079Z,6.4
2022-09-28T08:28:03.082Z,2.4000000000000004
2022-09-28T08:29:03.078Z,5.300000000000001
2022-09-28T08:30:03.081Z,4.6000000000000005
2022-09-28T08:31:03.258Z,4.9
2022-09-28T08:32:03.085Z,0
2022-09-28T08:33:03.091Z,0
2022-09-28T08:34:03.091Z,0
2022-09-28T08:35:03.082Z,0
2022-09-28T08:36:03.080Z,0
2022-09-28T08:37:03.087Z,0
2022-09-28T08:38:03.105Z,0
2022-09-28T08:39:03.090Z,0
2022-09-28T08:40:03.085Z,0
2022-09-28T08:41:03.113Z,0
2022-09-28T08:42:03.083Z,3.9000000000000004
2022-09-28T08:43:03.084Z,1
2022-09-28T08:44:03.085Z,0
2022-09-28T08:45:03.091Z,0
2022-09-28T08:46:03.132Z,0
2022-09-28T08:47:03.087Z,0
2022-09-28T08:48:03.084Z,0
2022-09-28T08:50:03.091Z,0.7000000000000001
2022-09-28T08:51:03.094Z,2.6
2022-09-28T08:52:03.095Z,1
2022-09-28T08:53:03.089Z,1.2000000000000002
2022-09-28T08:54:03.138Z,0
2022-09-28T08:55:03.092Z,6.4
2022-09-28T08:56:03.100Z,6.800000000000001
2022-09-28T08:57:03.100Z,6.300000000000001
2022-09-28T08:58:03.095Z,2.9000000000000004
2022-09-28T08:59:03.086Z,1.7000000000000002
2022-09-28T09:00:03.284Z,2.4000000000000004
2022-09-28T09:01:03.360Z,4.7
2022-09-28T09:02:03.347Z,4.2
2022-09-28T09:03:03.275Z,4.4
2022-09-28T09:04:03.279Z,2.1
2022-09-28T09:05:03.280Z,0
2022-09-28T09:06:03.275Z,0
2022-09-28T09:07:03.289Z,5.2
2022-09-28T09:08:03.283Z,1.7000000000000002
2022-09-28T09:09:03.274Z,3.4000000000000004
2022-09-28T09:10:03.299Z,6.9
2022-09-28T09:11:03.282Z,1.6
2022-09-28T09:12:03.289Z,0
2022-09-28T09:13:03.284Z,0
2022-09-28T09:14:03.282Z,7.4
2022-09-28T09:15:03.287Z,8.1
2022-09-28T09:16:03.282Z,9.200000000000001
2022-09-28T09:17:03.329Z,6.2
2022-09-28T09:18:03.284Z,2.9000000000000004
2022-09-28T09:19:03.294Z,5.800000000000001
2022-09-28T09:20:03.286Z,1.5
2022-09-28T09:21:03.284Z,2.2
2022-09-28T09:22:03.282Z,0
2022-09-28T09:23:03.290Z,0
2022-09-28T09:24:03.286Z,6.9
2022-09-28T09:25:03.291Z,4.1000000000000005
2022-09-28T09:26:03.298Z,5.7
2022-09-28T09:27:03.301Z,3.5
2022-09-28T09:28:03.284Z,3.8000000000000003
2022-09-28T09:29:03.293Z,1.9000000000000001
2022-09-28T09:30:03.294Z,0
2022-09-28T09:31:03.320Z,0
2022-09-28T09:32:03.290Z,0
2022-09-28T09:33:03.303Z,4.1000000000000005
2022-09-28T09:34:03.279Z,1.8
2022-09-28T09:35:03.288Z,0
2022-09-28T09:36:03.295Z,0
2022-09-28T09:37:03.286Z,0
2022-09-28T09:38:03.295Z,8.9
2022-09-28T09:39:03.293Z,5
2022-09-28T09:40:03.288Z,4.4
2022-09-28T09:41:03.453Z,6.5
2022-09-28T09:42:03.321Z,2.4000000000000004
2022-09-28T09:43:03.296Z,2
2022-09-28T09:44:03.294Z,2.1
2022-09-28T09:45:03.297Z,1.3
2022-09-28T09:46:03.356Z,0
2022-09-28T09:47:03.295Z,0
2022-09-28T09:48:03.291Z,0
2022-09-28T09:49:03.292Z,5.7
2022-09-28T09:50:05.282Z,2
2022-09-28T09:51:03.295Z,0
2022-09-28T09:52:03.295Z,0.30000000000000004
2022-09-28T09:53:03.290Z,3.2
2022-09-28T09:54:03.288Z,3.4000000000000004
2022-09-28T09:55:03.293Z,0
2022-09-28T09:56:03.292Z,1.2000000000000002
2022-09-28T09:57:03.289Z,0
2022-09-28T09:58:03.313Z,0
2022-09-28T09:59:03.295Z,1.7000000000000002
2022-09-28T10:00:03.304Z,2.9000000000000004
2022-09-28T10:01:03.346Z,1.4000000000000001
2022-09-28T10:02:03.330Z,0.6000000000000001
2022-09-28T10:03:03.294Z,4.3
2022-09-28T10:04:03.291Z,2.2
2022-09-28T10:05:03.298Z,5.1000000000000005
2022-09-28T10:06:03.300Z,6.7
2022-09-28T10:07:03.291Z,4.1000000000000005
2022-09-28T10:08:03.297Z,1.2000000000000002
2022-09-28T10:09:03.301Z,1.7000000000000002
2022-09-28T10:10:03.294Z,6.300000000000001
2022-09-28T10:11:03.299Z,3
2022-09-28T10:12:03.300Z,1.1
2022-09-28T10:13:03.301Z,0
2022-09-28T10:14:03.321Z,0
2022-09-28T10:15:03.295Z,1
2022-09-28T10:16:03.302Z,2.6
2022-09-28T10:17:03.360Z,0
2022-09-28T10:18:03.308Z,0
2022-09-28T10:19:03.300Z,0
2022-09-28T10:20:03.295Z,6.4
2022-09-28T10:21:03.309Z,4.5
2022-09-28T10:22:03.308Z,3.1
2022-09-28T10:23:03.305Z,1.8
2022-09-28T10:24:03.304Z,2.2
2022-09-28T10:25:03.300Z,3.2
2022-09-28T10:26:03.309Z,1.6
2022-09-28T10:27:03.306Z,1.7000000000000002
2022-09-28T10:28:03.316Z,3.9000000000000004
2022-09-28T10:29:03.310Z,1.2000000000000002
2022-09-28T10:30:03.331Z,0
2022-09-28T10:31:03.416Z,0
2022-09-28T10:32:03.297Z,3.5
2022-09-28T10:33:03.305Z,3.4000000000000004
2022-09-28T10:34:03.303Z,1.1
2022-09-28T10:35:03.314Z,2.5
2022-09-28T10:36:03.305Z,0.9
2022-09-28T10:37:03.308Z,1.3
2022-09-28T10:38:03.313Z,0
2022-09-28T10:39:03.316Z,5.1000000000000005
2022-09-28T10:40:03.305Z,6.300000000000001
2022-09-28T10:41:03.373Z,2
2022-09-28T10:42:03.314Z,5.7
2022-09-28T10:43:03.318Z,4
2022-09-28T10:44:03.307Z,4.800000000000001
2022-09-28T10:45:03.308Z,8.700000000000001
2022-09-28T10:46:03.469Z,7.4
2022-09-28T10:47:03.319Z,1.2000000000000002
2022-09-28T10:48:03.322Z,1.7000000000000002
2022-09-28T10:49:03.320Z,1.3
2022-09-28T10:50:03.320Z,0
2022-09-28T10:51:03.310Z,0
2022-09-28T10:52:03.312Z,0
2022-09-28T10:53:03.312Z,0
2022-09-28T10:54:03.313Z,0
2022-09-28T10:55:03.311Z,0
2022-09-28T10:56:03.316Z,0
2022-09-28T10:57:03.316Z,0
2022-09-28T10:58:03.313Z,0
2022-09-28T10:59:03.316Z,0
2022-09-28T11:00:03.321Z,0
2022-09-28T11:01:03.385Z,0
2022-09-28T11:02:03.387Z,0
2022-09-28T11:03:03.323Z,0
2022-09-28T11:04:03.306Z,4.9
2022-09-28T11:05:03.322Z,5.800000000000001
2022-09-28T11:06:03.318Z,5.300000000000001
2022-09-28T11:07:03.325Z,7.6000000000000005
2022-09-28T11:08:03.316Z,3.8000000000000003
2022-09-28T11:09:03.326Z,5.800000000000001
2022-09-28T11:10:03.326Z,3.4000000000000004
2022-09-28T11:11:03.326Z,0
2022-09-28T11:12:03.315Z,0
2022-09-28T11:13:03.328Z,4.3
2022-09-28T11:14:03.324Z,7.300000000000001
2022-09-28T11:15:03.329Z,7.300000000000001
2022-09-28T11:16:03.325Z,5.6000000000000005
2022-09-28T11:17:03.372Z,2.2
2022-09-28T11:18:03.348Z,0
2022-09-28T11:19:03.326Z,1.5
2022-09-28T11:20:03.323Z,8.700000000000001
2022-09-28T11:21:03.330Z,9.1
2022-09-28T11:22:03.325Z,3.7
2022-09-28T11:23:03.325Z,5
2022-09-28T11:24:03.331Z,6.5
2022-09-28T11:25:03.329Z,3.8000000000000003
2022-09-28T11:26:03.335Z,3
2022-09-28T11:27:03.338Z,8
2022-09-28T11:28:03.327Z,5.5
2022-09-28T11:29:03.333Z,0
2022-09-28T11:30:03.322Z,5.4
2022-09-28T11:31:03.388Z,3.9000000000000004
2022-09-28T11:32:03.344Z,4.800000000000001
2022-09-28T11:33:03.334Z,4.3
2022-09-28T11:34:03.353Z,9
2022-09-28T11:35:03.330Z,8.700000000000001
2022-09-28T11:36:03.332Z,3.1
2022-09-28T11:37:03.346Z,4.1000000000000005
2022-09-28T11:38:03.337Z,5
2022-09-28T11:39:03.337Z,1.9000000000000001
2022-09-28T11:40:03.336Z,2.6
2022-09-28T11:41:03.435Z,1.8
2022-09-28T11:42:03.338Z,3.8000000000000003
2022-09-28T11:43:03.347Z,6
2022-09-28T11:44:03.324Z,6.2
2022-09-28T11:45:03.327Z,4.9
2022-09-28T11:46:03.389Z,3.6
2022-09-28T11:47:03.334Z,4.7
2022-09-28T11:48:03.338Z,5.1000000000000005
2022-09-28T11:49:03.338Z,2.6
2022-09-28T11:50:03.396Z,4.7
2022-09-28T11:51:03.332Z,9
2022-09-28T11:52:03.341Z,6.2
2022-09-28T11:53:03.332Z,3.8000000000000003
2022-09-28T11:54:03.337Z,4.9
2022-09-28T11:55:03.344Z,0
2022-09-28T11:56:07.990Z,0
2022-09-28T11:57:03.335Z,3.8000000000000003
2022-09-28T11:58:03.334Z,4.3
2022-09-28T11:59:03.339Z,6.300000000000001
2022-09-28T12:00:03.340Z,8.1
2022-09-28T12:01:03.336Z,4.7
2022-09-28T12:02:03.445Z,3.9000000000000004
2022-09-28T12:03:03.463Z,0.30000000000000004
2022-09-28T12:04:03.339Z,6.6000000000000005
2022-09-28T12:05:03.335Z,1.8
2022-09-28T12:06:03.371Z,5
2022-09-28T12:07:03.335Z,3
2022-09-28T12:08:03.347Z,5
2022-09-28T12:09:03.331Z,3.4000000000000004
2022-09-28T12:10:03.343Z,4.3
2022-09-28T12:11:03.345Z,0
2022-09-28T12:12:03.343Z,0
2022-09-28T12:13:03.344Z,5.5
2022-09-28T12:14:03.336Z,1.4000000000000001
2022-09-28T12:15:03.335Z,0
2022-09-28T12:17:07.083Z,0
2022-09-28T12:18:03.440Z,0
2022-09-28T12:19:03.361Z,0
2022-09-28T12:20:03.392Z,0
2022-09-28T12:21:04.955Z,3.8000000000000003
2022-09-28T12:22:03.367Z,3.4000000000000004
2022-09-28T12:23:03.345Z,3.8000000000000003
2022-09-28T12:24:03.345Z,1.6
2022-09-28T12:25:03.344Z,4.4
2022-09-28T12:26:03.352Z,9.3
2022-09-28T12:27:03.347Z,4
2022-09-28T12:28:03.341Z,16.5
2022-09-28T12:29:03.344Z,3.4000000000000004
2022-09-28T12:30:03.352Z,4.3
2022-09-28T12:31:03.376Z,7.7
2022-09-28T12:32:03.341Z,7
2022-09-28T12:33:03.348Z,7.300000000000001
2022-09-28T12:34:03.343Z,10.100000000000001
2022-09-28T12:35:03.360Z,10.5
2022-09-28T12:36:03.354Z,11.3
2022-09-28T12:37:03.349Z,9
2022-09-28T12:38:03.389Z,7
2022-09-28T12:39:17.961Z,10.3
2022-09-28T12:40:03.573Z,6.300000000000001
2022-09-28T12:41:03.436Z,7.7
2022-09-28T12:42:03.344Z,6.5
2022-09-28T12:43:03.357Z,7.6000000000000005
2022-09-28T12:44:03.350Z,7.5
2022-09-28T12:45:03.350Z,8.4
2022-09-28T12:46:12.216Z,5.9
2022-09-28T12:47:03.388Z,6.7
2022-09-28T12:48:03.348Z,7.800000000000001
2022-09-28T12:49:47.557Z,8.9
2022-09-28T12:51:03.355Z,8.5
2022-09-28T12:52:03.351Z,11.4
2022-09-28T12:53:03.413Z,15.9
2022-09-28T12:54:03.376Z,10.8
2022-09-28T12:55:03.404Z,12.100000000000001
2022-09-28T12:56:03.357Z,11.8
2022-09-28T12:57:03.361Z,12.600000000000001
2022-09-28T12:58:03.355Z,11.8
2022-09-28T12:59:03.355Z,7.300000000000001
2022-09-28T13:00:03.357Z,9.9
2022-09-28T13:01:03.532Z,7.800000000000001
2022-09-28T13:02:03.367Z,6.2
2022-09-28T13:03:03.361Z,7.9
2022-09-28T13:04:03.360Z,13.200000000000001
2022-09-28T13:05:03.361Z,6.4
2022-09-28T13:06:03.362Z,15.5
2022-09-28T13:07:03.357Z,5.800000000000001
2022-09-28T13:08:03.367Z,10.5
2022-09-28T13:09:03.370Z,10.600000000000001
2022-09-28T13:10:03.388Z,10.600000000000001
2022-09-28T13:11:07.655Z,9.200000000000001
2022-09-28T13:12:03.356Z,5.6000000000000005
2022-09-28T13:13:03.365Z,11.3
2022-09-28T13:14:03.366Z,13.8
2022-09-28T13:15:03.371Z,9.8
2022-09-28T13:16:03.377Z,7.7
2022-09-28T13:17:03.372Z,8.700000000000001
2022-09-28T13:18:03.368Z,6
2022-09-28T13:19:03.371Z,8.8
2022-09-28T13:20:03.370Z,2.8000000000000003
2022-09-28T13:21:03.367Z,6
2022-09-28T13:22:03.366Z,6.6000000000000005
2022-09-28T13:23:03.371Z,14.200000000000001
2022-09-28T13:24:14.690Z,5.7
2022-09-28T13:25:03.370Z,8.700000000000001